createdAt,value
2022-09-28T00:04:40.288Z,99107.52
2022-09-28T00:09:45.864Z,99099.98
2022-09-28T00:14:51.315Z,99103.15
2022-09-28T00:19:58.204Z,99101.37
2022-09-28T00:25:03.617Z,99101.02
2022-09-28T00:30:10.138Z,99092.75
2022-09-28T00:35:17.457Z,99094.01
2022-09-28T00:40:26.694Z,99085.78
2022-09-28T00:45:33.542Z,99074.84
2022-09-28T00:50:41.080Z,99080.12
2022-09-28T00:56:03.721Z,99074.05
2022-09-28T01:01:09.522Z,99068.69
2022-09-28T01:06:18.470Z,99073.69
2022-09-28T01:11:24.838Z,99075.66
2022-09-28T01:16:48.865Z,99079.59
2022-09-28T01:22:07.589Z,99080.08
2022-09-28T01:27:31.220Z,99082.70
2022-09-28T01:32:39.652Z,99082.83
2022-09-28T01:38:08.208Z,99080.06
2022-09-28T01:43:20.645Z,99084.21
2022-09-28T01:48:29.243Z,99095.55
2022-09-28T01:53:43.676Z,99087.73
2022-09-28T01:58:59.663Z,99089.70
2022-09-28T02:04:10.877Z,99088.23
2022-09-28T02:09:20.083Z,99090.28
2022-09-28T02:14:27.434Z,99083.36
2022-09-28T02:19:34.246Z,99081.80
2022-09-28T02:24:45.693Z,99085.95
2022-09-28T02:29:52.777Z,99084.97
2022-09-28T02:34:59.349Z,99083.89
2022-09-28T02:40:06.483Z,99078.97
2022-09-28T02:45:34.786Z,99078.97
2022-09-28T02:51:04.545Z,99082.18
2022-09-28T02:56:12.965Z,99074.42
2022-09-28T03:01:27.052Z,99076.19
2022-09-28T03:06:44.650Z,99075.11
2022-09-28T03:11:59.355Z,99069.89
2022-09-28T03:17:05.088Z,99063.69
2022-09-28T03:22:10.828Z,99067.12
2022-09-28T03:27:16.540Z,99066.05
2022-09-28T03:32:21.995Z,99067.80
2022-09-28T03:37:29.183Z,99065.55
2022-09-28T03:42:38.013Z,99076.58
2022-09-28T03:47:47.771Z,99075.02
2022-09-28T03:52:53.146Z,99078.17
2022-09-28T03:57:58.677Z,99077.10
2022-09-28T04:03:04.311Z,99081.09
2022-09-28T04:08:09.910Z,99075.67
2022-09-28T04:13:17.248Z,99081.25
2022-09-28T04:18:25.247Z,99074.69
2022-09-28T04:23:49.443Z,99072.47
2022-09-28T04:29:12.824Z,99070.41
2022-09-28T04:34:22.132Z,99066.95
2022-09-28T04:39:27.858Z,99061.38
2022-09-28T04:44:34.454Z,99069.92
2022-09-28T04:49:41.592Z,99069.78
2022-09-28T04:54:48.909Z,99065.05
2022-09-28T04:59:54.552Z,99062.86
2022-09-28T05:05:01.051Z,99061.40
2022-09-28T05:10:14.067Z,99060.64
2022-09-28T05:15:19.708Z,99064.91
2022-09-28T05:20:26.178Z,99052.61
2022-09-28T05:25:31.919Z,99049.58
2022-09-28T05:30:41.903Z,99049.00
2022-09-28T05:36:04.941Z,99046.27
2022-09-28T05:41:10.586Z,99040.95
2022-09-28T05:46:18.591Z,99039.97
2022-09-28T05:51:25.649Z,99030.38
2022-09-28T05:56:34.246Z,99035.38
2022-09-28T06:01:41.368Z,99042.38
2022-09-28T06:06:48.366Z,99044.56
2022-09-28T06:11:54.684Z,99048.35
2022-09-28T06:17:04.713Z,99051.88
2022-09-28T06:22:10.679Z,99054.22
2022-09-28T06:27:17.757Z,99056.05
2022-09-28T06:32:23.267Z,99056.41
2022-09-28T06:37:29.719Z,99056.89
2022-09-28T06:42:35.853Z,99050.42
2022-09-28T06:48:00.169Z,99051.25
2022-09-28T06:53:13.636Z,99057.72
2022-09-28T06:58:30.862Z,99057.98
2022-09-28T07:03:37.375Z,99061.02
2022-09-28T07:09:15.422Z,99058.95
2022-09-28T07:14:40.953Z,99069.78
2022-09-28T07:19:28.840Z,99071.56
2022-09-28T07:24:34.307Z,99074.84
2022-09-28T07:29:59.033Z,99069.71
2022-09-28T07:35:21.219Z,99069.59
2022-09-28T07:40:50.379Z,99073.52
2022-09-28T07:45:56.439Z,99063.54
2022-09-28T07:51:03.901Z,99068.20
2022-09-28T07:56:15.354Z,99064.46
2022-09-28T08:01:22.493Z,99066.00
2022-09-28T08:06:30.683Z,99064.31
2022-09-28T08:11:36.329Z,99060.78
2022-09-28T08:16:46.079Z,99060.64
2022-09-28T08:21:53.890Z,99067.55
2022-09-28T08:27:00.620Z,99061.13
2022-09-28T08:32:09.280Z,99066.42
2022-09-28T08:37:16.362Z,99068.25
2022-09-28T08:42:38.611Z,99072.11
2022-09-28T08:48:31.038Z,99069.26
2022-09-28T08:53:41.204Z,99073.13
2022-09-28T08:58:51.941Z,99075.67
2022-09-28T09:03:58.508Z,99078.80
2022-09-28T09:09:26.400Z,99079.30
2022-09-28T09:14:34.959Z,99070.42
2022-09-28T09:19:53.030Z,99069.19
2022-09-28T09:25:21.183Z,99066.84
2022-09-28T09:30:31.719Z,99066.55
2022-09-28T09:35:45.962Z,99057.56
2022-09-28T09:41:26.887Z,99062.69
2022-09-28T09:47:03.626Z,99059.53
2022-09-28T09:52:28.391Z,99064.03
2022-09-28T09:57:42.918Z,99068.53
2022-09-28T10:03:00.272Z,99068.38
2022-09-28T10:08:18.980Z,99058.42
2022-09-28T10:13:24.722Z,99062.69
2022-09-28T10:18:31.807Z,99070.03
2022-09-28T10:24:04.516Z,99069.93
2022-09-28T10:29:25.245Z,99065.13
2022-09-28T10:34:31.666Z,99071.67
2022-09-28T10:39:48.361Z,99067.86
2022-09-28T10:44:57.327Z,99066.12
2022-09-28T10:50:26.260Z,99070.18
2022-09-28T10:55:36.414Z,99074.84
2022-09-28T11:00:44.586Z,99072.52
2022-09-28T11:06:02.878Z,99072.36
2022-09-28T11:11:13.994Z,99077.20
2022-09-28T11:16:26.559Z,99073.05
2022-09-28T11:21:35.088Z,99066.72
2022-09-28T11:26:45.077Z,99069.84
2022-09-28T11:32:04.223Z,99070.87
2022-09-28T11:37:27.889Z,99071.42
2022-09-28T11:42:52.425Z,99067.45
2022-09-28T11:48:04.258Z,99068.18
2022-09-28T11:53:34.407Z,99074.75
2022-09-28T11:58:43.327Z,99068.48
2022-09-28T12:03:54.117Z,99063.80
2022-09-28T12:09:04.247Z,99068.18
2022-09-28T12:14:26.364Z,99063.48
2022-09-28T12:19:43.941Z,99063.48
2022-09-28T12:24:52.635Z,99059.29
2022-09-28T12:30:22.334Z,99059.41
2022-09-28T12:35:30.780Z,99064.95
2022-09-28T12:40:54.261Z,99062.03
2022-09-28T12:46:18.015Z,99062.16
2022-09-28T12:51:45.137Z,99062.30
2022-09-28T12:56:53.863Z,99063.64
2022-09-28T13:02:15.010Z,99057.41
2022-09-28T13:07:29.272Z,99061.11
2022-09-28T13:12:53.167Z,99061.33
2022-09-28T13:18:01.860Z,99063.67
2022-09-28T13:23:25.131Z,99061.95
2022-09-28T13:28:32.932Z,99060.61
2022-09-28T13:33:41.873Z,99059.16
2022-09-28T13:38:49.788Z,99060.29
2022-09-28T13:44:00.928Z,99059.31
2022-09-28T13:49:18.531Z,99053.92
2022-09-28T13:54:58.866Z,99058.15
2022-09-28T14:00:19.360Z,99059.86
2022-09-28T14:05:44.265Z,99059.02
2022-09-28T14:10:55.748Z,99068.23
2022-09-28T14:16:20.707Z,99062.64
2022-09-28T14:21:47.380Z,99064.45
2022-09-28T14:27:07.813Z,99063.14
2022-09-28T14:32:16.309Z,99063.95
2022-09-28T14:37:55.143Z,99071.63
2022-09-28T14:43:37.191Z,99077.33
2022-09-28T14:49:04.093Z,99079.02
2022-09-28T14:54:12.507Z,99072.63
2022-09-28T14:59:39.176Z,99078.35
2022-09-28T15:05:03.054Z,99087.31
2022-09-28T15:10:11.713Z,99081.02
2022-09-28T15:15:29.559Z,99082.20
2022-09-28T15:20:41.700Z,99086.20
2022-09-28T15:25:50.157Z,99084.56
2022-09-28T15:31:03.710Z,99083.19
2022-09-28T15:36:11.027Z,99080.48
2022-09-28T15:41:16.501Z,99086.33
2022-09-28T15:46:22.609Z,99093.50
2022-09-28T15:51:29.525Z,99098.98
2022-09-28T15:56:37.971Z,99097.23
2022-09-28T16:01:52.407Z,99099.38
2022-09-28T16:07:10.346Z,99095.73
2022-09-28T16:12:16.343Z,99093.91
2022-09-28T16:17:29.300Z,99103.37
2022-09-28T16:22:34.866Z,99102.84
2022-09-28T16:27:43.466Z,99113.71
2022-09-28T16:33:03.746Z,99115.14
2022-09-28T16:38:17.112Z,99121.30
2022-09-28T16:43:31.062Z,99122.83
2022-09-28T16:48:39.672Z,99125.95
2022-09-28T16:54:04.050Z,99127.07
2022-09-28T16:59:13.815Z,99133.83
2022-09-28T17:04:18.996Z,99126.88
2022-09-28T17:09:24.826Z,99129.24
2022-09-28T17:14:31.873Z,99125.70
2022-09-28T17:19:37.330Z,99130.18
2022-09-28T17:24:42.713Z,99136.12
2022-09-28T17:29:48.108Z,99144.95
2022-09-28T17:35:06.599Z,99141.77
2022-09-28T17:40:01.321Z,99152.38
2022-09-28T17:45:07.636Z,99154.05
2022-09-28T17:50:25.020Z,99159.62
2022-09-28T17:55:33.214Z,99168.48
2022-09-28T18:00:38.870Z,99174.73
2022-09-28T18:05:46.673Z,99174.38
2022-09-28T18:10:52.401Z,99170.27
2022-09-28T18:15:58.355Z,99181.25
2022-09-28T18:21:03.891Z,99183.12
2022-09-28T18:26:14.015Z,99194.66
2022-09-28T18:31:19.596Z,99193.75
2022-09-28T18:36:30.935Z,99198.81
2022-09-28T18:41:36.466Z,99206.39
2022-09-28T18:46:43.820Z,99212.11
2022-09-28T18:51:49.966Z,99204.66
2022-09-28T18:56:58.448Z,99210.80
2022-09-28T19:02:04.889Z,99216.45
2022-09-28T19:07:10.794Z,99215.23
2022-09-28T19:12:16.534Z,99210.93
2022-09-28T19:17:21.913Z,99216.78
2022-09-28T19:22:27.389Z,99214.16
2022-09-28T19:27:33.045Z,99223.70
2022-09-28T19:32:39.141Z,99230.58
2022-09-28T19:37:46.182Z,99229.52
2022-09-28T19:42:51.578Z,99241.81
2022-09-28T19:47:59.492Z,99234.20
2022-09-28T19:53:07.477Z,99232.75
2022-09-28T19:58:12.922Z,99226.09
2022-09-28T20:03:21.710Z,99228.09
2022-09-28T20:08:27.655Z,99228.11
2022-09-28T20:13:35.748Z,99235.66
2022-09-28T20:18:44.283Z,99245.56
2022-09-28T20:23:50.354Z,99251.52
2022-09-28T20:28:55.871Z,99257.84
2022-09-28T20:34:03.329Z,99265.88
2022-09-28T20:39:09.563Z,99265.03
2022-09-28T20:44:15.029Z,99277.59
2022-09-28T20:49:20.738Z,99270.42
2022-09-28T20:54:26.249Z,99272.98
2022-09-28T20:59:31.658Z,99275.90
2022-09-28T21:04:37.061Z,99279.82
2022-09-28T21:09:42.520Z,99288.57
2022-09-28T21:14:47.916Z,99292.33
2022-09-28T21:19:53.346Z,99297.80
2022-09-28T21:24:58.732Z,99301.44
2022-09-28T21:30:04.328Z,99298.19
2022-09-28T21:35:10.416Z,99302.20
2022-09-28T21:40:15.882Z,99308.63
2022-09-28T21:45:21.758Z,99314.70
2022-09-28T21:50:28.066Z,99315.06
2022-09-28T21:55:33.463Z,99313.97
2022-09-28T22:00:40.554Z,99314.94
2022-09-28T22:05:45.969Z,99321.02
2022-09-28T22:11:11.785Z,99323.31
2022-09-28T22:16:20.034Z,99327.33
2022-09-28T22:21:32.074Z,99326.11
2022-09-28T22:26:39.709Z,99324.67
2022-09-28T22:31:45.107Z,99330.86
2022-09-28T22:36:50.488Z,99325.75
2022-09-28T22:41:55.879Z,99331.58
2022-09-28T22:47:01.268Z,99337.03
2022-09-28T22:52:06.995Z,99338.50
2022-09-28T22:57:12.465Z,99342.27
2022-09-28T23:02:17.849Z,99347.38
2022-09-28T23:07:23.564Z,99351.00
2022-09-28T23:12:30.614Z,99348.32
2022-09-28T23:17:36.572Z,99358.39
2022-09-28T23:22:43.592Z,99355.98
2022-09-28T23:27:50.573Z,99349.17
2022-09-28T23:32:55.961Z,99354.74
2022-09-28T23:38:01.723Z,99353.41
2022-09-28T23:43:07.588Z,99348.80
2022-09-28T23:48:15.167Z,99352.44
2022-09-28T23:53:20.774Z,99354.86
2022-09-28T23:58:26.491Z,99352.66
